Time;durP1;ratioP1;P1;durP2;ratioP2;P2;SDS_P1;SDS_P2;PMS_P1;PMS_P2;Temp;Humidity;BMP_temperature;BMP_pressure;BME280_temperature;BME280_humidity;BME280_pressure;Samples;Min_cycle;Max_cycle;Signal;HPM_P1;HPM_P2
2023/09/18 00:00:24;;;;;;;9.97;7.50;;;19.20;99.90;;;;;;5017559;28;20190;-80
2023/09/18 00:02:50;;;;;;;15.20;9.17;;;19.20;99.90;;;;;;5017513;28;20182;-81
2023/09/18 00:05:15;;;;;;;10.20;7.90;;;19.10;99.90;;;;;;5001332;28;20269;-80
2023/09/18 00:07:44;;;;;;;12.10;8.20;;;19.10;99.90;;;;;;5017743;28;20186;-80
2023/09/18 00:10:11;;;;;;;12.80;8.20;;;19.00;99.90;;;;;;5034822;28;20245;-81
2023/09/18 00:12:37;;;;;;;12.20;7.80;;;19.00;99.90;;;;;;5000848;28;20421;-80
2023/09/18 00:15:04;;;;;;;13.87;8.63;;;18.90;99.90;;;;;;5016953;28;20933;-81
2023/09/18 00:17:29;;;;;;;13.73;7.97;;;19.00;99.90;;;;;;5017504;28;20425;-81
2023/09/18 00:19:55;;;;;;;9.53;7.50;;;18.90;99.90;;;;;;5017106;28;20791;-81
2023/09/18 00:22:21;;;;;;;10.53;7.87;;;18.90;99.90;;;;;;5017217;28;20183;-81
2023/09/18 00:24:47;;;;;;;13.20;9.00;;;18.90;99.90;;;;;;5033700;28;20716;-80
2023/09/18 00:27:13;;;;;;;13.93;8.40;;;18.90;99.90;;;;;;5000659;28;20194;-80
2023/09/18 00:29:39;;;;;;;14.23;8.20;;;18.80;99.90;;;;;;5034469;28;20465;-80
2023/09/18 00:32:08;;;;;;;20.40;8.53;;;18.70;99.90;;;;;;5016658;28;20748;-80
2023/09/18 00:34:34;;;;;;;9.20;8.30;;;18.70;99.90;;;;;;5017888;28;20316;-80
2023/09/18 00:36:59;;;;;;;14.03;8.97;;;18.70;99.90;;;;;;5016950;28;20534;-81
2023/09/18 00:39:28;;;;;;;10.53;7.47;;;18.70;99.90;;;;;;5037088;28;20192;-80
2023/09/18 00:41:54;;;;;;;12.07;8.97;;;18.60;99.90;;;;;;5032701;28;20186;-81
2023/09/18 00:44:21;;;;;;;12.00;8.53;;;18.60;99.90;;;;;;5016894;28;20392;-80
2023/09/18 00:46:48;;;;;;;11.67;8.27;;;18.50;99.90;;;;;;5034361;28;20209;-80
2023/09/18 00:49:14;;;;;;;10.87;8.03;;;18.50;99.90;;;;;;5034166;28;20477;-80
2023/09/18 00:51:40;;;;;;;8.60;7.80;;;18.50;99.90;;;;;;5034295;28;20394;-80
2023/09/18 00:54:06;;;;;;;12.87;9.17;;;18.50;99.90;;;;;;5047319;28;20519;-80
2023/09/18 00:56:33;;;;;;;10.53;8.37;;;18.50;99.90;;;;;;5019904;28;20928;-80
2023/09/18 00:59:00;;;;;;;14.30;9.77;;;18.50;99.90;;;;;;5035926;28;20427;-81
2023/09/18 01:01:25;;;;;;;11.57;8.73;;;18.50;99.90;;;;;;5019996;28;20458;-80
2023/09/18 01:03:53;;;;;;;8.77;7.73;;;18.40;99.90;;;;;;5019897;28;20500;-80
2023/09/18 01:06:20;;;;;;;10.43;7.97;;;18.30;99.90;;;;;;5053854;28;20178;-80
2023/09/18 01:08:49;;;;;;;8.93;7.23;;;18.30;99.90;;;;;;5053973;28;20806;-80
2023/09/18 01:11:24;;;;;;;9.27;7.47;;;18.30;99.90;;;;;;5036126;28;20403;-80
2023/09/18 01:14:01;;;;;;;9.63;8.20;;;18.20;99.90;;;;;;5053995;28;20387;-80
2023/09/18 01:16:43;;;;;;;9.70;7.60;;;18.30;99.90;;;;;;5036074;28;20526;-80
2023/09/18 01:19:09;;;;;;;10.30;8.43;;;18.20;99.90;;;;;;5053537;28;20418;-80
2023/09/18 01:21:35;;;;;;;8.13;7.30;;;18.20;99.90;;;;;;5052957;28;20908;-80
2023/09/18 01:24:00;;;;;;;8.00;7.27;;;18.20;99.90;;;;;;5039178;28;20434;-80
2023/09/18 01:26:26;;;;;;;12.50;7.90;;;18.10;99.90;;;;;;5056000;28;20614;-81
2023/09/18 01:28:52;;;;;;;10.43;8.30;;;18.10;99.90;;;;;;5039204;28;20267;-80
2023/09/18 01:31:18;;;;;;;15.00;8.33;;;18.10;99.90;;;;;;5073497;28;20204;-80
2023/09/18 01:33:47;;;;;;;16.30;8.43;;;18.10;99.90;;;;;;5055835;28;20176;-80
2023/09/18 01:36:14;;;;;;;17.40;8.47;;;18.10;99.90;;;;;;5055678;28;20477;-80
2023/09/18 01:38:40;;;;;;;12.07;8.77;;;18.10;99.90;;;;;;5038624;28;20423;-81
2023/09/18 01:41:06;;;;;;;10.50;8.60;;;18.10;99.90;;;;;;5038695;28;20492;-80
2023/09/18 01:43:31;;;;;;;13.47;9.00;;;18.10;99.90;;;;;;5055815;28;20389;-80
2023/09/18 01:45:57;;;;;;;13.47;9.10;;;18.10;99.90;;;;;;5073453;28;20169;-82
2023/09/18 01:48:23;;;;;;;12.17;9.20;;;18.10;99.90;;;;;;5038493;28;20431;-80
2023/09/18 01:50:48;;;;;;;16.30;9.77;;;18.10;99.90;;;;;;5022020;28;20184;-80
2023/09/18 01:53:14;;;;;;;14.70;9.03;;;18.10;99.90;;;;;;5073006;28;20257;-80
2023/09/18 01:55:40;;;;;;;11.40;9.50;;;18.20;99.90;;;;;;5038598;28;20185;-80
2023/09/18 01:58:06;;;;;;;16.30;9.80;;;18.30;99.90;;;;;;5038687;28;20322;-80
2023/09/18 02:00:32;;;;;;;9.30;8.30;;;18.40;99.90;;;;;;5022616;28;20550;-80
2023/09/18 02:02:57;;;;;;;11.47;8.20;;;18.40;99.90;;;;;;5005018;28;20400;-80
2023/09/18 02:05:23;;;;;;;11.50;9.03;;;18.40;99.90;;;;;;5015799;28;20192;-81
2023/09/18 02:07:49;;;;;;;16.57;9.70;;;18.50;99.90;;;;;;5036077;28;20235;-80
2023/09/18 02:10:15;;;;;;;17.77;10.60;;;18.60;99.90;;;;;;5035246;28;20217;-80
2023/09/18 02:12:40;;;;;;;13.80;9.63;;;18.80;99.90;;;;;;5019117;28;20396;-80
2023/09/18 02:15:07;;;;;;;9.93;8.73;;;18.80;99.90;;;;;;5002446;28;20181;-81
2023/09/18 02:17:32;;;;;;;11.90;8.47;;;18.80;99.90;;;;;;5002712;28;20217;-79
2023/09/18 02:20:00;;;;;;;12.63;7.80;;;18.80;99.90;;;;;;5053124;28;20426;-81
2023/09/18 02:22:26;;;;;;;16.50;9.37;;;18.80;99.90;;;;;;5035759;28;20185;-81
2023/09/18 02:24:51;;;;;;;11.50;8.73;;;19.00;99.90;;;;;;5053230;28;20756;-80
2023/09/18 02:27:18;;;;;;;9.90;7.70;;;19.10;99.90;;;;;;5019006;28;20249;-80
2023/09/18 02:29:44;;;;;;;11.40;8.40;;;19.10;99.90;;;;;;5019057;28;20233;-80
2023/09/18 02:32:10;;;;;;;11.03;7.17;;;19.20;99.90;;;;;;5035506;28;20397;-80
2023/09/18 02:34:35;;;;;;;9.77;7.17;;;19.30;99.90;;;;;;5035531;28;20696;-80
2023/09/18 02:37:01;;;;;;;14.13;7.93;;;19.30;99.90;;;;;;5035049;28;20698;-81
2023/09/18 02:39:26;;;;;;;11.27;8.90;;;19.40;99.90;;;;;;5035070;28;20280;-80
2023/09/18 02:41:52;;;;;;;14.40;8.90;;;19.40;99.90;;;;;;5051845;28;20182;-81
2023/09/18 02:44:17;;;;;;;13.23;7.53;;;19.40;99.90;;;;;;5019455;28;20186;-80
2023/09/18 02:46:43;;;;;;;19.87;7.67;;;19.30;99.90;;;;;;5015900;28;20190;-80
2023/09/18 02:49:09;;;;;;;10.30;7.80;;;19.30;99.90;;;;;;5026697;28;20210;-80
2023/09/18 02:51:34;;;;;;;10.10;7.53;;;19.30;99.90;;;;;;5018735;28;20217;-80
2023/09/18 02:54:00;;;;;;;12.40;6.90;;;19.40;99.90;;;;;;5035255;28;20228;-80
2023/09/18 02:56:25;;;;;;;11.10;6.73;;;19.30;99.90;;;;;;5018881;28;20174;-80
2023/09/18 02:58:51;;;;;;;13.30;7.50;;;19.30;99.90;;;;;;5035128;28;20232;-80
2023/09/18 03:01:17;;;;;;;10.93;7.00;;;19.30;99.90;;;;;;5003944;28;20185;-80
2023/09/18 03:03:43;;;;;;;12.03;7.10;;;19.30;99.90;;;;;;5038713;28;20656;-80
2023/09/18 03:06:08;;;;;;;8.07;7.00;;;19.40;99.90;;;;;;5021890;28;20280;-80
2023/09/18 03:08:34;;;;;;;12.03;6.80;;;19.40;99.90;;;;;;5038361;28;20399;-80
2023/09/18 03:11:00;;;;;;;8.13;7.20;;;19.40;99.90;;;;;;5038713;28;20236;-80
2023/09/18 03:13:27;;;;;;;9.37;6.40;;;19.30;99.90;;;;;;5038508;28;20535;-80
2023/09/18 03:15:53;;;;;;;12.50;6.50;;;19.40;99.90;;;;;;5038405;28;20390;-80
2023/09/18 03:18:19;;;;;;;9.40;7.10;;;19.40;99.90;;;;;;5054123;28;20748;-81
2023/09/18 03:20:45;;;;;;;8.37;6.73;;;19.30;99.90;;;;;;5055991;28;20178;-80
2023/09/18 03:23:10;;;;;;;10.00;6.07;;;19.30;99.90;;;;;;5005193;28;20185;-81
2023/09/18 03:25:37;;;;;;;10.67;6.07;;;19.30;99.90;;;;;;5021853;28;20438;-81
2023/09/18 03:28:03;;;;;;;10.83;7.40;;;19.20;99.90;;;;;;5037751;28;20221;-85
2023/09/18 03:30:29;;;;;;;11.10;6.67;;;19.20;99.90;;;;;;5037968;28;20467;-81
2023/09/18 03:32:55;;;;;;;11.47;7.13;;;19.30;99.90;;;;;;5056029;28;20866;-81
2023/09/18 03:35:21;;;;;;;11.40;6.80;;;19.30;99.90;;;;;;5005012;28;20209;-81
2023/09/18 03:37:47;;;;;;;13.43;6.73;;;19.30;99.90;;;;;;5055689;28;20165;-81
2023/09/18 03:40:13;;;;;;;13.17;6.77;;;19.30;99.90;;;;;;5021445;28;20425;-81
2023/09/18 03:42:38;;;;;;;12.83;6.67;;;19.30;99.90;;;;;;5021493;28;20391;-81
2023/09/18 03:45:08;;;;;;;10.70;6.50;;;19.30;99.90;;;;;;5021399;28;20868;-82
2023/09/18 03:47:35;;;;;;;10.10;6.10;;;19.30;99.90;;;;;;5056102;28;20213;-80
2023/09/18 03:50:02;;;;;;;18.53;6.47;;;19.40;99.90;;;;;;5036261;28;20442;-82
2023/09/18 03:52:27;;;;;;;8.30;6.10;;;19.40;99.90;;;;;;5022507;28;20539;-81
2023/09/18 03:54:53;;;;;;;9.33;5.97;;;19.30;99.90;;;;;;5037467;28;20470;-82
2023/09/18 03:57:19;;;;;;;10.50;5.30;;;19.30;99.90;;;;;;5041145;28;20181;-81
2023/09/18 03:59:44;;;;;;;9.33;5.37;;;19.30;99.90;;;;;;5052092;28;20260;-81
2023/09/18 04:02:10;;;;;;;17.40;5.97;;;19.30;99.90;;;;;;5035243;28;20198;-81
2023/09/18 04:04:35;;;;;;;9.87;5.70;;;19.30;99.90;;;;;;5017655;28;20202;-81
2023/09/18 04:07:06;;;;;;;9.53;5.53;;;19.30;99.90;;;;;;5035338;28;20205;-80
2023/09/18 04:09:31;;;;;;;8.90;5.90;;;19.30;99.90;;;;;;5018167;28;20207;-80
2023/09/18 04:11:57;;;;;;;6.80;5.17;;;19.20;99.90;;;;;;5060315;28;20996;-80
2023/09/18 04:14:23;;;;;;;7.70;5.27;;;19.20;99.90;;;;;;5040603;28;20200;-80
2023/09/18 04:16:48;;;;;;;8.20;5.57;;;19.30;99.90;;;;;;5057318;28;20516;-80
2023/09/18 04:19:14;;;;;;;12.93;5.00;;;19.20;99.90;;;;;;5055858;28;20184;-81
2023/09/18 04:21:39;;;;;;;9.13;5.37;;;19.20;99.90;;;;;;5021111;28;20247;-80
2023/09/18 04:24:05;;;;;;;9.37;5.70;;;19.10;99.90;;;;;;5037258;28;20185;-81
2023/09/18 04:26:31;;;;;;;8.60;5.30;;;19.20;99.90;;;;;;5055089;28;20262;-81
2023/09/18 04:28:57;;;;;;;12.10;5.10;;;19.20;99.90;;;;;;5020564;28;20689;-80
2023/09/18 04:31:23;;;;;;;10.07;4.97;;;19.10;99.90;;;;;;5020297;28;20185;-80
2023/09/18 04:33:48;;;;;;;9.63;5.30;;;19.10;99.90;;;;;;5054590;28;20422;-80
2023/09/18 04:36:14;;;;;;;10.90;5.17;;;19.20;99.90;;;;;;5036808;28;20224;-81
2023/09/18 04:38:39;;;;;;;10.33;5.23;;;19.20;99.90;;;;;;5046243;28;20583;-80
2023/09/18 04:41:07;;;;;;;7.70;3.90;;;19.10;99.90;;;;;;5056800;28;20181;-80
2023/09/18 04:43:34;;;;;;;6.17;4.00;;;19.10;99.90;;;;;;5056999;28;20222;-80
2023/09/18 04:46:00;;;;;;;8.40;4.20;;;19.10;99.90;;;;;;5056772;28;20905;-80
2023/09/18 04:48:26;;;;;;;8.43;5.10;;;19.10;99.90;;;;;;5039595;28;20409;-80
2023/09/18 04:50:52;;;;;;;8.40;4.40;;;19.10;99.90;;;;;;5056694;28;20419;-80
2023/09/18 04:53:17;;;;;;;6.60;4.83;;;19.10;99.90;;;;;;5039548;28;20188;-81
2023/09/18 04:55:43;;;;;;;7.80;4.60;;;19.10;99.90;;;;;;5040048;28;20180;-80
2023/09/18 04:58:08;;;;;;;11.33;4.00;;;19.00;99.90;;;;;;5039089;28;20550;-81
2023/09/18 05:00:34;;;;;;;7.57;3.77;;;19.00;99.90;;;;;;5074296;28;20188;-80
2023/09/18 05:03:01;;;;;;;8.30;4.07;;;19.00;99.90;;;;;;5056380;28;20213;-80
2023/09/18 05:05:27;;;;;;;7.97;4.50;;;19.00;99.90;;;;;;5074069;28;20173;-80
2023/09/18 05:07:53;;;;;;;5.73;3.47;;;19.00;99.90;;;;;;5056607;28;20873;-80
2023/09/18 05:10:19;;;;;;;9.20;4.50;;;19.00;99.90;;;;;;5074068;28;20462;-80
2023/09/18 05:12:45;;;;;;;8.67;3.70;;;19.00;99.90;;;;;;5023143;28;20188;-80
2023/09/18 05:15:12;;;;;;;7.63;3.90;;;19.00;99.90;;;;;;5039688;28;20423;-80
2023/09/18 05:17:52;;;;;;;4.20;2.90;;;19.00;99.90;;;;;;5062933;28;20428;-81
2023/09/18 05:20:17;;;;;;;6.37;3.43;;;19.00;99.90;;;;;;5035791;28;20490;-80
2023/09/18 05:22:44;;;;;;;9.40;3.90;;;19.00;99.90;;;;;;5019992;28;20420;-80
2023/09/18 05:25:10;;;;;;;7.13;3.70;;;19.00;99.90;;;;;;5035865;28;20412;-82
2023/09/18 05:27:43;;;;;;;8.40;3.60;;;19.10;99.90;;;;;;5035730;28;20412;-80
2023/09/18 05:30:11;;;;;;;9.37;4.13;;;19.10;99.90;;;;;;5035724;28;20475;-80
2023/09/18 05:32:37;;;;;;;5.00;3.70;;;19.00;99.90;;;;;;5020092;28;20420;-80
2023/09/18 05:35:06;;;;;;;8.30;3.40;;;19.00;99.90;;;;;;5019939;28;20740;-80
2023/09/18 05:37:32;;;;;;;5.10;2.93;;;19.00;99.90;;;;;;5035921;28;20184;-80
2023/09/18 05:39:57;;;;;;;7.47;3.67;;;19.00;99.90;;;;;;5036132;28;20829;-80
2023/09/18 05:42:23;;;;;;;9.67;4.17;;;19.00;99.90;;;;;;5021997;28;20485;-81
2023/09/18 05:44:48;;;;;;;4.83;3.07;;;19.00;99.90;;;;;;5016746;28;20178;-80
2023/09/18 05:47:14;;;;;;;5.33;3.30;;;19.00;99.90;;;;;;4999616;28;20197;-80
2023/09/18 05:49:40;;;;;;;5.47;3.10;;;19.00;99.90;;;;;;4995671;28;20678;-80
2023/09/18 05:52:05;;;;;;;6.80;3.30;;;19.00;99.90;;;;;;5002822;28;20182;-80
2023/09/18 05:54:31;;;;;;;7.90;3.17;;;19.10;99.90;;;;;;5053368;28;20216;-80
2023/09/18 05:56:56;;;;;;;6.10;2.90;;;19.10;99.90;;;;;;5035709;28;20181;-80
2023/09/18 05:59:22;;;;;;;5.27;2.37;;;19.10;99.90;;;;;;5035329;28;20533;-80
2023/09/18 06:01:49;;;;;;;3.30;2.53;;;19.00;99.90;;;;;;5019618;28;20212;-80
2023/09/18 06:04:16;;;;;;;5.77;2.40;;;19.00;99.90;;;;;;5003015;28;20609;-81
2023/09/18 06:06:42;;;;;;;4.53;2.43;;;19.10;99.90;;;;;;5032673;28;20411;-80
2023/09/18 06:09:08;;;;;;;2.73;2.17;;;19.20;99.90;;;;;;5015783;28;20446;-80
2023/09/18 06:11:33;;;;;;;5.13;2.40;;;19.20;99.90;;;;;;5008391;28;20284;-80
2023/09/18 06:13:59;;;;;;;4.13;2.17;;;19.30;99.90;;;;;;5003061;28;20177;-80
2023/09/18 06:16:25;;;;;;;2.43;2.10;;;19.30;99.90;;;;;;5035469;28;20640;-80
2023/09/18 06:18:50;;;;;;;7.33;2.73;;;19.30;99.90;;;;;;5035891;28;20212;-80
2023/09/18 06:21:16;;;;;;;6.13;2.10;;;19.40;99.90;;;;;;5019065;28;20403;-81
2023/09/18 06:23:41;;;;;;;3.00;2.10;;;19.40;99.90;;;;;;5053189;28;20536;-80
2023/09/18 06:26:07;;;;;;;5.53;2.13;;;19.40;99.90;;;;;;5035059;28;20211;-80
2023/09/18 06:28:32;;;;;;;3.50;2.10;;;19.50;99.90;;;;;;5035044;28;20320;-80
2023/09/18 06:30:58;;;;;;;6.37;2.57;;;19.60;99.90;;;;;;5035461;28;20264;-80
2023/09/18 06:33:23;;;;;;;5.43;1.93;;;19.60;99.90;;;;;;5018605;28;20231;-80
2023/09/18 06:35:51;;;;;;;3.27;2.10;;;19.60;99.90;;;;;;5036823;28;20545;-80
2023/09/18 06:38:17;;;;;;;2.80;2.00;;;19.60;99.90;;;;;;5023210;28;20212;-80
2023/09/18 06:40:42;;;;;;;5.97;1.70;;;19.60;99.90;;;;;;5056826;28;20447;-80
2023/09/18 06:43:08;;;;;;;3.97;1.87;;;19.70;99.90;;;;;;5056729;28;20823;-84
2023/09/18 06:45:34;;;;;;;3.93;1.47;;;19.80;99.90;;;;;;5038738;28;20595;-84
2023/09/18 06:48:02;;;;;;;2.17;1.63;;;19.80;99.90;;;;;;5038956;28;20236;-84
2023/09/18 06:50:27;;;;;;;3.63;1.60;;;19.90;99.90;;;;;;5038447;28;20217;-84
2023/09/18 06:52:53;;;;;;;3.03;1.47;;;20.00;99.90;;;;;;5022148;28;20765;-84
2023/09/18 06:55:19;;;;;;;2.90;1.40;;;20.00;99.90;;;;;;5038370;28;20268;-84
2023/09/18 06:57:44;;;;;;;3.80;1.57;;;20.20;99.90;;;;;;5005815;28;20547;-84
2023/09/18 07:00:10;;;;;;;3.03;1.40;;;20.10;99.90;;;;;;5018964;28;20190;-84
2023/09/18 07:02:36;;;;;;;2.17;1.10;;;20.20;99.90;;;;;;5036326;28;20536;-84
2023/09/18 07:05:01;;;;;;;4.30;1.60;;;20.10;99.90;;;;;;5018952;28;20392;-84
2023/09/18 07:07:28;;;;;;;5.50;1.57;;;20.20;99.90;;;;;;5018558;28;20741;-85
2023/09/18 07:09:53;;;;;;;2.87;1.50;;;20.30;99.90;;;;;;5019000;28;20210;-84
2023/09/18 07:12:19;;;;;;;2.93;1.50;;;20.30;99.90;;;;;;5018750;28;20751;-85
2023/09/18 07:14:48;;;;;;;3.50;1.60;;;20.30;99.90;;;;;;5018671;28;20183;-85
2023/09/18 07:17:13;;;;;;;2.70;1.80;;;20.40;99.90;;;;;;5054107;28;20656;-85
2023/09/18 07:19:39;;;;;;;3.67;1.20;;;20.40;99.90;;;;;;5041376;28;20506;-85
2023/09/18 07:22:05;;;;;;;2.57;1.33;;;20.50;99.90;;;;;;5041281;28;20184;-85
2023/09/18 07:24:30;;;;;;;4.40;1.43;;;20.60;99.90;;;;;;5041001;28;20204;-85
2023/09/18 07:26:57;;;;;;;3.17;1.47;;;20.60;99.90;;;;;;5058533;28;20184;-84
2023/09/18 07:29:25;;;;;;;4.03;1.30;;;20.60;99.90;;;;;;5025125;28;20239;-85
2023/09/18 07:31:51;;;;;;;3.50;1.60;;;20.60;99.90;;;;;;5041877;28;20764;-84
2023/09/18 07:34:17;;;;;;;4.63;1.60;;;20.60;99.90;;;;;;5024973;28;20423;-84
2023/09/18 07:36:44;;;;;;;5.10;1.40;;;20.70;99.90;;;;;;5041056;28;20401;-83
2023/09/18 07:39:11;;;;;;;2.43;1.30;;;20.80;99.90;;;;;;5057910;28;20637;-84
2023/09/18 07:41:37;;;;;;;3.20;1.50;;;20.70;99.90;;;;;;5057642;28;20401;-84
2023/09/18 07:44:03;;;;;;;2.60;1.50;;;20.80;99.90;;;;;;5075834;28;20865;-84
2023/09/18 07:46:28;;;;;;;4.70;2.13;;;20.80;99.90;;;;;;5057695;28;20750;-85
2023/09/18 07:48:54;;;;;;;4.87;1.47;;;20.90;99.90;;;;;;5041413;28;20300;-84
2023/09/18 07:51:20;;;;;;;3.10;1.50;;;20.90;99.90;;;;;;5026737;28;20198;-84
2023/09/18 07:53:46;;;;;;;3.23;1.37;;;20.90;99.90;;;;;;5001857;28;20790;-84
2023/09/18 07:56:12;;;;;;;4.17;1.23;;;21.00;99.90;;;;;;5018371;28;20376;-84
2023/09/18 07:58:38;;;;;;;2.20;1.20;;;21.10;99.90;;;;;;5017385;28;20775;-84
2023/09/18 08:01:10;;;;;;;3.03;1.50;;;21.10;99.90;;;;;;5055482;28;20177;-84
2023/09/18 08:03:35;;;;;;;2.47;1.40;;;21.10;99.90;;;;;;5055131;28;20454;-85
2023/09/18 08:06:01;;;;;;;1.50;1.10;;;21.20;99.90;;;;;;5020857;28;20906;-84
2023/09/18 08:08:27;;;;;;;3.33;1.17;;;21.20;99.90;;;;;;5037018;28;20190;-85
2023/09/18 08:10:53;;;;;;;2.63;1.50;;;21.20;99.90;;;;;;5053907;28;20217;-84
2023/09/18 08:13:23;;;;;;;4.60;1.50;;;21.20;99.90;;;;;;5021014;28;20185;-84
2023/09/18 08:15:48;;;;;;;4.47;1.67;;;21.30;99.90;;;;;;5054141;28;20945;-85
2023/09/18 08:18:14;;;;;;;5.73;1.40;;;21.30;99.90;;;;;;5032463;28;20407;-84
2023/09/18 08:20:43;;;;;;;3.30;1.50;;;21.40;99.90;;;;;;5036956;28;20831;-84
2023/09/18 08:23:10;;;;;;;1.93;1.20;;;21.40;99.90;;;;;;5055051;28;20234;-84
2023/09/18 08:25:36;;;;;;;5.07;2.00;;;21.40;99.90;;;;;;5036814;28;20382;-85
2023/09/18 08:28:03;;;;;;;2.13;1.07;;;21.40;99.90;;;;;;5020547;28;20442;-84
2023/09/18 08:30:29;;;;;;;1.77;1.63;;;21.50;99.90;;;;;;5054418;28;20468;-84
2023/09/18 08:32:54;;;;;;;2.63;1.57;;;21.50;99.90;;;;;;5036725;28;20800;-83
2023/09/18 08:35:21;;;;;;;2.30;1.53;;;21.40;99.90;;;;;;5036584;28;20428;-84
2023/09/18 08:37:47;;;;;;;1.77;1.50;;;21.50;99.90;;;;;;5036785;28;20235;-84
2023/09/18 08:40:13;;;;;;;2.23;1.40;;;21.60;99.90;;;;;;5037063;28;20390;-84
2023/09/18 08:42:44;;;;;;;2.70;1.30;;;21.60;99.90;;;;;;5053072;28;20213;-84
2023/09/18 08:45:21;;;;;;;2.13;1.40;;;21.70;99.90;;;;;;5036869;28;20390;-84
2023/09/18 08:47:47;;;;;;;9.80;2.33;;;21.80;99.90;;;;;;5054716;28;20430;-84
2023/09/18 08:50:14;;;;;;;2.53;1.30;;;21.80;99.90;;;;;;5036322;28;20889;-84
2023/09/18 08:52:40;;;;;;;3.00;1.57;;;21.70;99.90;;;;;;5054263;28;20224;-85
2023/09/18 08:55:07;;;;;;;2.50;1.20;;;21.80;99.90;;;;;;5036707;28;20390;-84
2023/09/18 08:57:35;;;;;;;2.10;1.30;;;21.90;99.90;;;;;;5053946;28;20412;-84
2023/09/18 09:00:06;;;;;;;2.50;1.23;;;21.90;99.90;;;;;;5003332;28;20493;-84
2023/09/18 09:02:33;;;;;;;2.17;1.43;;;22.00;99.90;;;;;;5021352;28;20810;-84
2023/09/18 09:05:01;;;;;;;2.00;1.37;;;22.10;99.90;;;;;;5001764;28;20452;-86
2023/09/18 09:07:31;;;;;;;3.03;1.90;;;22.20;99.90;;;;;;5033601;28;20792;-84
2023/09/18 09:09:56;;;;;;;3.57;1.50;;;22.20;99.90;;;;;;4984919;28;20970;-84
2023/09/18 09:12:50;;;;;;;2.00;1.50;;;22.20;99.90;;;;;;5025616;28;20434;-85
2023/09/18 09:15:16;;;;;;;2.60;1.67;;;22.30;99.90;;;;;;5032777;28;20515;-85
2023/09/18 09:17:45;;;;;;;3.00;1.17;;;22.40;99.90;;;;;;5033823;28;20514;-84
2023/09/18 09:20:15;;;;;;;3.77;1.20;;;22.40;99.90;;;;;;5016159;28;20428;-85
2023/09/18 09:22:41;;;;;;;8.30;3.20;;;22.50;99.90;;;;;;5016168;28;20409;-85
2023/09/18 09:25:26;;;;;;;5.53;1.70;;;22.50;99.90;;;;;;5000023;28;20775;-85
2023/09/18 09:27:52;;;;;;;5.50;1.80;;;22.60;99.90;;;;;;5016021;28;21011;-84
2023/09/18 09:30:26;;;;;;;2.47;1.30;;;22.70;99.90;;;;;;5047388;28;20463;-84
2023/09/18 09:32:54;;;;;;;3.17;1.50;;;22.60;99.90;;;;;;5053799;28;20514;-84
2023/09/18 09:35:46;;;;;;;4.73;1.40;;;22.60;99.90;;;;;;5035744;28;20401;-86
2023/09/18 09:38:15;;;;;;;3.40;1.40;;;22.60;99.90;;;;;;5034090;28;20566;-85
2023/09/18 09:40:43;;;;;;;1.47;1.10;;;22.60;99.90;;;;;;5035287;28;20428;-87
2023/09/18 09:43:13;;;;;;;5.20;1.30;;;22.80;99.90;;;;;;5036042;28;20408;-88
2023/09/18 09:45:40;;;;;;;3.47;1.50;;;22.90;99.90;;;;;;5053743;28;20411;-86
2023/09/18 09:48:07;;;;;;;1.90;1.60;;;22.90;99.90;;;;;;5035769;28;20436;-87
2023/09/18 09:50:34;;;;;;;2.50;1.63;;;23.00;99.90;;;;;;5035009;28;20460;-86
2023/09/18 09:52:59;;;;;;;3.13;1.83;;;23.10;99.90;;;;;;5035693;28;20419;-87
2023/09/18 09:55:28;;;;;;;4.23;1.87;;;23.20;99.90;;;;;;5002813;28;20414;-86
2023/09/18 09:58:00;;;;;;;2.97;1.40;;;23.30;99.90;;;;;;5035777;28;20604;-86
2023/09/18 10:00:32;;;;;;;3.63;1.50;;;23.30;99.90;;;;;;5035919;28;20406;-86
2023/09/18 10:03:02;;;;;;;3.00;1.97;;;23.40;99.90;;;;;;5035728;28;20434;-86
2023/09/18 10:05:36;;;;;;;2.07;1.40;;;23.30;99.90;;;;;;5018649;28;20434;-87
2023/09/18 10:08:08;;;;;;;2.23;1.27;;;23.30;99.90;;;;;;5053388;28;20378;-86
2023/09/18 10:10:39;;;;;;;2.30;1.30;;;23.70;99.90;;;;;;5036058;28;20442;-88
2023/09/18 10:13:12;;;;;;;2.10;1.13;;;24.30;99.90;;;;;;5039846;28;20398;-86
2023/09/18 10:15:39;;;;;;;1.93;0.93;;;24.90;99.90;;;;;;5056821;28;20495;-86
2023/09/18 10:18:17;;;;;;;1.37;0.97;;;25.30;99.90;;;;;;5057619;28;20420;-86
2023/09/18 10:20:45;;;;;;;3.57;1.50;;;25.70;99.90;;;;;;5039153;28;20519;-86
2023/09/18 10:23:40;;;;;;;2.90;0.93;;;25.90;99.90;;;;;;5039491;28;20478;-87
2023/09/18 10:26:09;;;;;;;2.40;1.20;;;25.80;99.90;;;;;;5025867;28;20427;-88
2023/09/18 10:28:36;;;;;;;2.13;1.10;;;25.70;99.90;;;;;;5039067;28;20452;-87
2023/09/18 10:31:03;;;;;;;1.67;1.10;;;26.00;99.90;;;;;;5057313;28;20537;-89
2023/09/18 10:33:30;;;;;;;1.27;1.00;;;25.90;99.90;;;;;;5039335;28;20447;-87
2023/09/18 10:35:56;;;;;;;3.43;1.33;;;26.20;99.90;;;;;;5023028;28;20424;-86
2023/09/18 10:38:25;;;;;;;1.30;1.20;;;26.30;99.90;;;;;;5022528;28;20431;-87
2023/09/18 10:40:52;;;;;;;2.50;1.33;;;26.20;99.90;;;;;;5045017;28;20416;-87
2023/09/18 10:43:18;;;;;;;1.83;1.20;;;26.00;99.90;;;;;;5059978;28;20419;-88
2023/09/18 10:45:44;;;;;;;1.73;0.87;;;25.80;99.90;;;;;;5042791;28;20791;-86
2023/09/18 10:48:13;;;;;;;3.23;1.23;;;26.00;99.90;;;;;;5058926;28;20189;-87
2023/09/18 10:50:40;;;;;;;1.10;0.90;;;26.50;99.90;;;;;;5042437;28;20838;-89
2023/09/18 10:53:05;;;;;;;2.20;1.27;;;26.40;99.90;;;;;;5058955;28;20411;-85
2023/09/18 10:55:33;;;;;;;3.53;1.10;;;26.40;99.90;;;;;;5058607;28;20430;-88
2023/09/18 10:58:00;;;;;;;3.80;1.57;;;26.40;99.90;;;;;;5076655;28;20514;-87
2023/09/18 11:00:27;;;;;;;1.93;1.20;;;26.40;99.90;;;;;;5058522;28;20418;-86
2023/09/18 11:02:53;;;;;;;2.17;1.37;;;26.40;99.90;;;;;;5057733;28;20918;-87
2023/09/18 11:05:35;;;;;;;3.83;1.10;;;26.70;99.90;;;;;;5058750;28;20423;-87
2023/09/18 11:08:33;;;;;;;2.20;1.30;;;26.80;99.90;;;;;;5042046;28;20422;-88
2023/09/18 11:11:05;;;;;;;3.10;1.30;;;27.40;99.90;;;;;;5058285;28;20466;-86
2023/09/18 11:13:33;;;;;;;3.10;1.10;;;27.50;99.90;;;;;;5076084;28;20395;-87
2023/09/18 11:16:33;;;;;;;1.93;1.00;;;27.40;99.90;;;;;;5058106;28;20423;-89
2023/09/18 11:18:58;;;;;;;1.43;0.80;;;27.80;99.90;;;;;;5076341;28;20411;-87
2023/09/18 11:21:29;;;;;;;2.10;1.23;;;27.80;99.90;;;;;;5057788;28;20429;-88
2023/09/18 11:24:17;;;;;;;3.00;1.87;;;27.70;99.90;;;;;;5058227;28;20179;-90
2023/09/18 11:26:45;;;;;;;1.67;1.50;;;27.10;99.90;;;;;;5058288;28;20424;-87
2023/09/18 11:29:18;;;;;;;2.67;1.43;;;27.50;99.90;;;;;;5035824;28;20498;-89
2023/09/18 11:31:56;;;;;;;1.40;1.07;;;27.60;99.90;;;;;;5018121;28;20424;-90
2023/09/18 11:34:34;;;;;;;1.53;1.40;;;27.60;99.90;;;;;;5018269;28;20425;-87
2023/09/18 11:37:22;;;;;;;4.00;1.60;;;27.80;99.90;;;;;;5035825;28;20757;-87
2023/09/18 11:39:48;;;;;;;2.07;1.10;;;27.90;99.90;;;;;;5041235;28;20409;-88
2023/09/18 11:42:19;;;;;;;1.60;1.37;;;28.10;99.90;;;;;;5018633;28;20917;-88
2023/09/18 11:44:48;;;;;;;2.90;1.70;;;27.90;99.90;;;;;;5018419;28;20276;-88
2023/09/18 11:47:24;;;;;;;1.30;1.20;;;27.70;99.90;;;;;;5017774;28;20436;-88
2023/09/18 11:49:50;;;;;;;1.57;1.17;;;27.70;99.90;;;;;;5017908;28;20500;-87
2023/09/18 11:52:17;;;;;;;1.40;1.30;;;27.90;99.90;;;;;;5018168;28;20980;-87
2023/09/18 11:54:46;;;;;;;4.03;1.70;;;28.50;99.90;;;;;;5033779;28;20523;-88
2023/09/18 11:57:15;;;;;;;1.30;1.20;;;28.90;99.90;;;;;;5017622;28;20948;-87
2023/09/18 11:59:48;;;;;;;3.10;1.60;;;28.70;99.90;;;;;;5035579;28;20421;-87
2023/09/18 12:02:38;;;;;;;3.27;1.50;;;29.00;99.90;;;;;;5017957;28;20500;-87
2023/09/18 12:05:18;;;;;;;2.63;1.90;;;29.20;99.90;;;;;;5043788;28;20412;-87
2023/09/18 12:07:45;;;;;;;1.33;1.10;;;29.50;99.90;;;;;;5054883;28;20450;-87
2023/09/18 12:10:20;;;;;;;5.00;1.60;;;29.00;99.90;;;;;;5055028;28;20817;-90
2023/09/18 12:12:55;;;;;;;2.13;1.40;;;28.50;99.90;;;;;;5053722;28;20481;-89
2023/09/18 12:15:21;;;;;;;1.90;1.70;;;28.60;99.90;;;;;;5037463;28;20506;-88
2023/09/18 12:17:49;;;;;;;2.70;1.50;;;28.80;99.90;;;;;;5053782;28;20490;-88
2023/09/18 12:20:18;;;;;;;3.73;1.40;;;28.40;99.90;;;;;;5053628;28;20424;-89
2023/09/18 12:22:50;;;;;;;2.13;1.40;;;28.10;99.90;;;;;;5036906;28;20432;-88
2023/09/18 12:25:19;;;;;;;3.20;1.53;;;27.80;99.90;;;;;;5034256;28;20766;-89
2023/09/18 12:27:45;;;;;;;3.10;1.30;;;28.20;99.90;;;;;;5034197;28;20468;-88
2023/09/18 12:30:14;;;;;;;2.33;1.30;;;28.50;99.90;;;;;;5037000;28;20479;-87
2023/09/18 12:32:40;;;;;;;2.13;1.50;;;28.90;99.90;;;;;;5054252;28;20412;-87
2023/09/18 12:35:07;;;;;;;1.50;1.30;;;29.00;99.90;;;;;;5036538;28;20412;-87
2023/09/18 12:37:40;;;;;;;1.50;1.40;;;29.60;99.90;;;;;;5054825;28;20681;-87
2023/09/18 12:40:10;;;;;;;3.53;1.57;;;29.60;99.90;;;;;;5021417;28;20432;-89
2023/09/18 12:42:46;;;;;;;2.63;1.30;;;29.30;99.90;;;;;;5036930;28;20892;-90
2023/09/18 12:45:12;;;;;;;1.70;1.30;;;29.70;99.90;;;;;;5036758;28;20412;-88